Time;durP1;ratioP1;P1;durP2;ratioP2;P2;SDS_P1;SDS_P2;PMS_P1;PMS_P2;Temp;Humidity;BMP_temperature;BMP_pressure;BME280_temperature;BME280_humidity;BME280_pressure;Samples;Min_cycle;Max_cycle;Signal;HPM_P1;HPM_P2
2022/09/17 00:02:06;;;;;;;5.32;1.00;;;;;;;;;;4961092;28;20038;-75
2022/09/17 00:04:32;;;;;;;2.88;0.95;;;;;;;;;;4973104;28;20034;-74
2022/09/17 00:06:58;;;;;;;3.30;1.00;;;;;;;;;;4982105;28;20138;-74
2022/09/17 00:09:24;;;;;;;5.63;1.27;;;;;;;;;;4983429;28;20125;-74
2022/09/17 00:11:50;;;;;;;3.28;1.27;;;;;;;;;;4985811;28;20026;-75
2022/09/17 00:14:16;;;;;;;3.35;1.15;;;;;;;;;;4978775;28;20781;-74
2022/09/17 00:16:44;;;;;;;5.78;1.67;;;;;;;;;;4981301;28;20032;-74
2022/09/17 00:19:13;;;;;;;3.72;1.10;;;;;;;;;;4988058;28;20044;-74
2022/09/17 00:21:39;;;;;;;3.83;1.15;;;;;;;;;;4986804;28;20133;-74
2022/09/17 00:24:06;;;;;;;5.22;1.25;;;;;;;;;;4978760;28;20042;-74
2022/09/17 00:26:33;;;;;;;3.78;1.40;;;;;;;;;;4985764;28;20018;-74
2022/09/17 00:29:00;;;;;;;3.88;1.10;;;;;;;;;;4982373;28;20038;-74
2022/09/17 00:31:26;;;;;;;2.95;1.00;;;;;;;;;;4974734;28;20074;-74
2022/09/17 00:33:52;;;;;;;3.40;1.17;;;;;;;;;;4983347;28;20055;-74
2022/09/17 00:36:19;;;;;;;3.10;1.20;;;;;;;;;;4977600;28;20109;-74
2022/09/17 00:38:48;;;;;;;5.38;1.10;;;;;;;;;;4989250;28;20045;-74
2022/09/17 00:41:14;;;;;;;3.90;1.00;;;;;;;;;;4983032;28;20037;-74
2022/09/17 00:43:51;;;;;;;3.63;0.90;;;;;;;;;;4981058;28;20034;-75
2022/09/17 00:46:35;;;;;;;5.70;1.30;;;;;;;;;;4984728;28;20036;-74
2022/09/17 00:49:02;;;;;;;3.80;1.20;;;;;;;;;;4986336;28;20392;-75
2022/09/17 00:51:32;;;;;;;3.67;1.35;;;;;;;;;;4987097;28;20031;-75
2022/09/17 00:54:00;;;;;;;3.97;1.30;;;;;;;;;;4976872;28;20060;-74
2022/09/17 00:56:28;;;;;;;4.00;1.27;;;;;;;;;;4981610;28;20034;-75
2022/09/17 00:58:54;;;;;;;5.80;1.13;;;;;;;;;;4984031;28;20042;-75
2022/09/17 01:01:20;;;;;;;3.88;1.30;;;;;;;;;;4983369;28;20108;-74
2022/09/17 01:03:46;;;;;;;3.00;1.13;;;;;;;;;;4984496;28;20047;-75
2022/09/17 01:06:31;;;;;;;5.07;1.38;;;;;;;;;;4985199;28;20072;-74
2022/09/17 01:09:09;;;;;;;5.20;1.30;;;;;;;;;;4981788;28;20038;-75
2022/09/17 01:11:53;;;;;;;5.70;1.23;;;;;;;;;;4982491;28;20074;-74
2022/09/17 01:14:19;;;;;;;4.25;1.38;;;;;;;;;;4982761;28;20042;-74
2022/09/17 01:16:57;;;;;;;7.13;1.23;;;;;;;;;;4983954;28;20030;-75
2022/09/17 01:19:32;;;;;;;6.10;1.40;;;;;;;;;;4986820;28;20503;-74
2022/09/17 01:22:22;;;;;;;3.08;1.10;;;;;;;;;;4981266;28;20027;-74
2022/09/17 01:25:00;;;;;;;5.30;1.60;;;;;;;;;;4983408;28;20353;-74
2022/09/17 01:27:28;;;;;;;3.55;1.65;;;;;;;;;;4981424;28;20031;-75
2022/09/17 01:30:24;;;;;;;6.80;1.52;;;;;;;;;;4980974;28;20403;-75
2022/09/17 01:33:05;;;;;;;3.38;1.10;;;;;;;;;;4932926;28;20054;-74
2022/09/17 01:35:50;;;;;;;6.00;1.15;;;;;;;;;;4985083;28;20138;-74
2022/09/17 01:38:18;;;;;;;3.83;1.20;;;;;;;;;;4984890;28;20487;-74
2022/09/17 01:40:52;;;;;;;2.22;1.00;;;;;;;;;;4980712;28;20032;-74
2022/09/17 01:43:23;;;;;;;3.00;0.82;;;;;;;;;;4974859;28;20030;-74
2022/09/17 01:45:50;;;;;;;5.90;1.27;;;;;;;;;;4981717;28;20061;-74
2022/09/17 01:48:18;;;;;;;7.20;1.35;;;;;;;;;;4983840;28;20049;-75
2022/09/17 01:50:48;;;;;;;7.35;1.40;;;;;;;;;;4979248;28;20042;-74
2022/09/17 01:53:15;;;;;;;4.72;1.20;;;;;;;;;;4984236;28;20030;-75
2022/09/17 01:55:43;;;;;;;3.47;1.00;;;;;;;;;;4973603;28;20105;-74
2022/09/17 01:58:39;;;;;;;3.40;1.30;;;;;;;;;;4977778;28;20027;-74
2022/09/17 02:01:06;;;;;;;3.72;1.10;;;;;;;;;;4964299;28;20122;-74
2022/09/17 02:03:39;;;;;;;4.32;1.20;;;;;;;;;;4984169;28;20040;-74
2022/09/17 02:06:05;;;;;;;3.33;1.20;;;;;;;;;;4980675;28;20058;-74
2022/09/17 02:08:36;;;;;;;4.40;1.13;;;;;;;;;;4979716;28;20089;-74
2022/09/17 02:11:10;;;;;;;3.90;1.67;;;;;;;;;;4985469;28;20062;-74
2022/09/17 02:13:36;;;;;;;2.28;1.20;;;;;;;;;;4985617;28;20034;-74
2022/09/17 02:16:06;;;;;;;5.32;1.38;;;;;;;;;;4979614;28;20040;-74
2022/09/17 02:19:01;;;;;;;4.40;1.00;;;;;;;;;;4981632;28;20105;-74
2022/09/17 02:21:47;;;;;;;3.60;1.30;;;;;;;;;;4970488;28;20748;-74
2022/09/17 02:24:24;;;;;;;6.20;1.10;;;;;;;;;;4981428;28;20054;-74
2022/09/17 02:27:10;;;;;;;9.05;1.23;;;;;;;;;;4981791;28;20570;-74
2022/09/17 02:29:43;;;;;;;8.77;2.13;;;;;;;;;;4986830;28;20038;-74
2022/09/17 02:32:10;;;;;;;5.47;1.90;;;;;;;;;;4982788;28;20353;-74
2022/09/17 02:34:36;;;;;;;5.45;1.50;;;;;;;;;;4984250;28;20584;-74
2022/09/17 02:37:03;;;;;;;3.80;1.33;;;;;;;;;;4986922;28;20042;-74
2022/09/17 02:39:29;;;;;;;7.13;1.30;;;;;;;;;;4983554;28;20475;-74
2022/09/17 02:42:05;;;;;;;4.32;1.10;;;;;;;;;;4980373;28;20066;-74
2022/09/17 02:44:37;;;;;;;3.22;1.30;;;;;;;;;;4980574;28;20038;-74
2022/09/17 02:47:09;;;;;;;9.30;1.77;;;;;;;;;;4984574;28;20054;-74
2022/09/17 02:49:49;;;;;;;3.90;1.00;;;;;;;;;;4984310;28;20042;-74
2022/09/17 02:52:21;;;;;;;4.80;1.25;;;;;;;;;;4980994;28;20833;-74
2022/09/17 02:54:47;;;;;;;4.43;1.33;;;;;;;;;;4981243;28;20042;-74
2022/09/17 02:57:24;;;;;;;2.17;0.80;;;;;;;;;;4983516;28;20042;-74
2022/09/17 02:59:58;;;;;;;2.97;0.70;;;;;;;;;;4980967;28;20393;-74
2022/09/17 03:02:31;;;;;;;3.92;0.70;;;;;;;;;;4979682;28;20035;-74
2022/09/17 03:04:57;;;;;;;3.50;0.80;;;;;;;;;;4980595;28;20046;-74
2022/09/17 03:07:24;;;;;;;2.15;0.68;;;;;;;;;;4974171;28;20125;-74
2022/09/17 03:09:50;;;;;;;2.55;0.70;;;;;;;;;;4983412;28;20030;-74
2022/09/17 03:12:16;;;;;;;5.55;1.10;;;;;;;;;;4979444;28;20038;-74
2022/09/17 03:14:42;;;;;;;4.45;0.77;;;;;;;;;;4983206;28;20057;-74
2022/09/17 03:17:08;;;;;;;3.33;0.40;;;;;;;;;;4986816;28;20030;-74
2022/09/17 03:19:34;;;;;;;6.65;1.40;;;;;;;;;;4978885;28;20046;-74
2022/09/17 03:22:00;;;;;;;3.22;0.98;;;;;;;;;;4982330;28;20054;-74
2022/09/17 03:24:26;;;;;;;5.00;0.90;;;;;;;;;;4983949;28;20106;-74
2022/09/17 03:26:52;;;;;;;3.67;0.95;;;;;;;;;;4980976;28;20129;-74
2022/09/17 03:29:18;;;;;;;1.98;0.85;;;;;;;;;;4986497;28;20041;-74
2022/09/17 03:31:44;;;;;;;6.85;0.98;;;;;;;;;;4976723;28;20038;-74
2022/09/17 03:34:10;;;;;;;3.13;0.80;;;;;;;;;;4979244;28;20417;-74
2022/09/17 03:36:36;;;;;;;4.88;0.85;;;;;;;;;;4986530;28;20076;-74
2022/09/17 03:39:02;;;;;;;3.45;0.90;;;;;;;;;;4983452;28;20045;-74
2022/09/17 03:41:28;;;;;;;7.97;0.70;;;;;;;;;;4983624;28;20030;-74
2022/09/17 03:43:54;;;;;;;2.65;0.60;;;;;;;;;;4983846;28;20070;-74
2022/09/17 03:46:20;;;;;;;5.20;0.80;;;;;;;;;;4983556;28;20477;-74
2022/09/17 03:48:46;;;;;;;5.82;0.80;;;;;;;;;;4981022;28;20527;-74
2022/09/17 03:51:12;;;;;;;4.38;1.05;;;;;;;;;;4991313;28;20034;-74
2022/09/17 03:53:38;;;;;;;5.20;0.90;;;;;;;;;;4979191;28;20141;-74
2022/09/17 03:56:05;;;;;;;3.88;0.88;;;;;;;;;;4984825;28;20125;-74
2022/09/17 03:58:32;;;;;;;6.68;0.90;;;;;;;;;;4983434;28;20035;-74
2022/09/17 04:00:58;;;;;;;6.85;1.27;;;;;;;;;;4988662;28;20036;-74
2022/09/17 04:03:25;;;;;;;3.90;0.70;;;;;;;;;;4985338;28;20046;-74
2022/09/17 04:05:51;;;;;;;6.18;0.88;;;;;;;;;;4984392;28;20041;-74
2022/09/17 04:08:18;;;;;;;5.10;1.00;;;;;;;;;;4960382;28;20099;-74
2022/09/17 04:10:44;;;;;;;5.75;0.80;;;;;;;;;;4978072;28;20030;-74
2022/09/17 04:13:10;;;;;;;5.78;0.98;;;;;;;;;;4970174;28;20030;-74
2022/09/17 04:15:36;;;;;;;4.95;1.10;;;;;;;;;;4963922;28;20043;-74
2022/09/17 04:18:02;;;;;;;2.83;0.60;;;;;;;;;;4961673;28;20086;-74
2022/09/17 04:20:28;;;;;;;5.25;0.75;;;;;;;;;;4968909;28;20062;-74
2022/09/17 04:22:54;;;;;;;3.70;0.50;;;;;;;;;;4969136;28;20092;-74
2022/09/17 04:25:20;;;;;;;6.80;0.88;;;;;;;;;;4973388;28;20473;-74
2022/09/17 04:27:46;;;;;;;2.25;0.50;;;;;;;;;;4958651;28;20142;-74
2022/09/17 04:30:13;;;;;;;3.40;0.50;;;;;;;;;;4975228;28;20797;-74
2022/09/17 04:32:39;;;;;;;2.88;0.57;;;;;;;;;;4969313;28;20030;-74
2022/09/17 04:35:05;;;;;;;4.38;0.50;;;;;;;;;;4966344;28;20050;-74
2022/09/17 04:37:31;;;;;;;2.45;0.68;;;;;;;;;;4965009;28;20027;-74
2022/09/17 04:39:57;;;;;;;5.20;0.63;;;;;;;;;;4965273;28;20045;-74
2022/09/17 04:42:23;;;;;;;2.80;0.50;;;;;;;;;;4959743;28;20031;-74
2022/09/17 04:44:49;;;;;;;5.18;0.50;;;;;;;;;;4981117;28;20037;-74
2022/09/17 04:47:15;;;;;;;2.78;0.60;;;;;;;;;;4972496;28;20034;-74
2022/09/17 04:49:41;;;;;;;2.95;0.50;;;;;;;;;;4960590;28;20035;-74
2022/09/17 04:52:07;;;;;;;1.77;0.40;;;;;;;;;;4957070;28;20489;-74
2022/09/17 04:54:33;;;;;;;1.25;0.32;;;;;;;;;;4974363;28;20041;-74
2022/09/17 04:57:00;;;;;;;2.65;0.30;;;;;;;;;;4972721;28;20037;-74
2022/09/17 04:59:26;;;;;;;3.95;0.65;;;;;;;;;;4971291;28;20042;-74
2022/09/17 05:01:52;;;;;;;4.75;0.57;;;;;;;;;;4973556;28;20030;-74
2022/09/17 05:04:18;;;;;;;1.77;0.50;;;;;;;;;;4964110;28;20942;-74
2022/09/17 05:06:44;;;;;;;2.40;0.38;;;;;;;;;;4970107;28;20412;-74
2022/09/17 05:09:10;;;;;;;1.45;0.30;;;;;;;;;;4987858;28;20046;-74
2022/09/17 05:11:36;;;;;;;2.03;0.40;;;;;;;;;;4980795;28;20034;-74
2022/09/17 05:14:02;;;;;;;3.72;0.40;;;;;;;;;;4983516;28;20042;-74
2022/09/17 05:16:28;;;;;;;2.85;0.40;;;;;;;;;;4979635;28;20037;-74
2022/09/17 05:18:54;;;;;;;1.40;0.30;;;;;;;;;;4986968;28;20096;-74
2022/09/17 05:21:20;;;;;;;2.22;0.40;;;;;;;;;;4982141;28;20034;-74
2022/09/17 05:23:46;;;;;;;2.42;0.30;;;;;;;;;;4982321;28;20049;-73
2022/09/17 05:26:13;;;;;;;6.75;0.40;;;;;;;;;;4980407;28;20030;-74
2022/09/17 05:28:39;;;;;;;2.47;0.50;;;;;;;;;;4981247;28;20038;-74
2022/09/17 05:31:05;;;;;;;1.38;0.30;;;;;;;;;;4981420;28;20137;-74
2022/09/17 05:33:31;;;;;;;2.38;0.50;;;;;;;;;;4985716;28;20105;-74
2022/09/17 05:35:57;;;;;;;3.88;0.70;;;;;;;;;;4986425;28;20444;-74
2022/09/17 05:38:23;;;;;;;4.32;0.60;;;;;;;;;;4982412;28;20398;-74
2022/09/17 05:40:49;;;;;;;3.17;0.40;;;;;;;;;;4988690;28;20049;-74
2022/09/17 05:43:16;;;;;;;2.13;0.30;;;;;;;;;;4985872;28;20892;-74
2022/09/17 05:45:42;;;;;;;4.05;0.45;;;;;;;;;;4980403;28;20063;-74
2022/09/17 05:48:11;;;;;;;2.53;0.40;;;;;;;;;;4980759;28;20043;-73
2022/09/17 05:50:37;;;;;;;2.63;0.43;;;;;;;;;;4983996;28;20034;-74
2022/09/17 05:53:06;;;;;;;3.88;0.30;;;;;;;;;;4988856;28;20093;-72
2022/09/17 05:55:34;;;;;;;4.45;0.30;;;;;;;;;;4982690;28;20030;-74
2022/09/17 05:58:00;;;;;;;2.50;0.38;;;;;;;;;;4985230;28;20770;-74
2022/09/17 06:00:26;;;;;;;2.78;0.47;;;;;;;;;;4989258;28;20069;-74
2022/09/17 06:02:56;;;;;;;1.80;0.35;;;;;;;;;;4987338;28;20034;-74
2022/09/17 06:05:22;;;;;;;1.67;0.40;;;;;;;;;;4988523;28;20031;-74
2022/09/17 06:07:48;;;;;;;3.28;0.50;;;;;;;;;;4988959;28;20167;-76
2022/09/17 06:10:14;;;;;;;2.08;0.65;;;;;;;;;;4989255;28;20484;-77
2022/09/17 06:12:40;;;;;;;7.88;0.40;;;;;;;;;;4985980;28;20042;-77
2022/09/17 06:15:07;;;;;;;1.88;0.30;;;;;;;;;;4985517;28;20042;-77
2022/09/17 06:17:34;;;;;;;5.50;0.50;;;;;;;;;;4980068;28;20027;-76
2022/09/17 06:20:00;;;;;;;1.98;0.40;;;;;;;;;;4977956;28;20061;-76
2022/09/17 06:22:26;;;;;;;1.27;0.20;;;;;;;;;;4984688;28;20037;-77
2022/09/17 06:24:52;;;;;;;3.40;0.30;;;;;;;;;;4989284;28;20121;-76
2022/09/17 06:27:18;;;;;;;7.72;0.50;;;;;;;;;;4980604;28;20110;-76
2022/09/17 06:29:44;;;;;;;6.00;0.40;;;;;;;;;;4986293;28;20504;-77
2022/09/17 06:32:11;;;;;;;2.30;0.30;;;;;;;;;;4989295;28;20033;-76
2022/09/17 06:34:38;;;;;;;1.65;0.30;;;;;;;;;;4983268;28;20034;-77
2022/09/17 06:37:04;;;;;;;5.53;0.75;;;;;;;;;;4978003;28;20066;-77
2022/09/17 06:39:30;;;;;;;3.22;0.50;;;;;;;;;;4983724;28;20480;-76
2022/09/17 06:41:56;;;;;;;2.75;0.40;;;;;;;;;;4984584;28;20069;-76
2022/09/17 06:44:22;;;;;;;1.98;0.40;;;;;;;;;;4989511;28;20117;-77
2022/09/17 06:46:49;;;;;;;3.70;0.43;;;;;;;;;;4981061;28;20114;-77
2022/09/17 06:49:16;;;;;;;2.03;0.40;;;;;;;;;;4987652;28;20053;-76
2022/09/17 06:51:43;;;;;;;2.30;0.52;;;;;;;;;;4996296;28;20035;-77
2022/09/17 06:54:09;;;;;;;4.45;0.40;;;;;;;;;;4989388;28;20062;-76
2022/09/17 06:56:35;;;;;;;1.13;0.30;;;;;;;;;;4988834;28;20030;-76
2022/09/17 06:59:01;;;;;;;1.50;0.30;;;;;;;;;;4980052;28;20054;-76
2022/09/17 07:01:27;;;;;;;1.08;0.20;;;;;;;;;;4987283;28;20057;-76
2022/09/17 07:03:53;;;;;;;2.20;0.40;;;;;;;;;;4980970;28;20069;-76
2022/09/17 07:06:19;;;;;;;2.25;0.28;;;;;;;;;;4984231;28;20097;-77
2022/09/17 07:08:46;;;;;;;4.03;0.65;;;;;;;;;;4988376;28;20109;-77
2022/09/17 07:11:12;;;;;;;1.63;0.30;;;;;;;;;;4991614;28;20109;-77
2022/09/17 07:13:38;;;;;;;3.28;0.40;;;;;;;;;;4985677;28;20109;-78
2022/09/17 07:16:05;;;;;;;2.53;0.38;;;;;;;;;;4992204;28;20077;-77
2022/09/17 07:18:32;;;;;;;1.20;0.17;;;;;;;;;;4984026;28;20061;-76
2022/09/17 07:21:02;;;;;;;0.47;0.20;;;;;;;;;;4984381;28;20038;-77
2022/09/17 07:23:32;;;;;;;2.10;0.40;;;;;;;;;;4992264;28;20034;-77
2022/09/17 07:25:59;;;;;;;3.30;0.20;;;;;;;;;;4985022;28;20109;-77
2022/09/17 07:28:26;;;;;;;2.15;0.30;;;;;;;;;;4983539;28;20038;-77
2022/09/17 07:30:52;;;;;;;1.90;0.20;;;;;;;;;;4985017;28;20049;-78
2022/09/17 07:33:22;;;;;;;1.13;0.47;;;;;;;;;;4990217;28;20043;-77
2022/09/17 07:35:54;;;;;;;3.28;0.43;;;;;;;;;;4990332;28;20030;-78
2022/09/17 07:38:21;;;;;;;1.10;0.30;;;;;;;;;;4992634;28;20427;-78
2022/09/17 07:40:57;;;;;;;0.93;0.30;;;;;;;;;;4988123;28;20023;-77
2022/09/17 07:43:25;;;;;;;2.85;0.30;;;;;;;;;;4986848;28;20043;-78
2022/09/17 07:45:52;;;;;;;2.38;0.50;;;;;;;;;;4980613;28;20344;-77
2022/09/17 07:48:18;;;;;;;1.13;0.35;;;;;;;;;;4989953;28;20456;-78
2022/09/17 07:50:44;;;;;;;6.05;0.90;;;;;;;;;;4987507;28;20054;-77
2022/09/17 07:53:10;;;;;;;1.40;0.40;;;;;;;;;;4980365;28;20074;-77
2022/09/17 07:55:36;;;;;;;1.70;0.40;;;;;;;;;;4988920;28;20037;-78
2022/09/17 07:58:02;;;;;;;2.13;0.40;;;;;;;;;;4980882;28;20035;-77
2022/09/17 08:00:28;;;;;;;2.63;0.30;;;;;;;;;;4977669;28;20034;-78
2022/09/17 08:02:54;;;;;;;2.20;0.38;;;;;;;;;;4990795;28;20737;-78
2022/09/17 08:05:21;;;;;;;2.13;0.32;;;;;;;;;;4981149;28;20408;-78
2022/09/17 08:07:53;;;;;;;4.63;0.40;;;;;;;;;;4990924;28;20092;-78
2022/09/17 08:10:21;;;;;;;5.63;0.40;;;;;;;;;;4990150;28;20518;-78
2022/09/17 08:12:54;;;;;;;5.68;0.40;;;;;;;;;;4991119;28;20062;-78
2022/09/17 08:15:20;;;;;;;3.05;0.30;;;;;;;;;;4983880;28;20416;-78
2022/09/17 08:17:46;;;;;;;1.88;0.70;;;;;;;;;;4992091;28;20566;-78
2022/09/17 08:20:13;;;;;;;1.27;0.20;;;;;;;;;;4989137;28;20072;-77
2022/09/17 08:22:39;;;;;;;2.25;0.30;;;;;;;;;;4985002;28;20026;-74
2022/09/17 08:25:06;;;;;;;1.00;0.30;;;;;;;;;;4984183;28;20064;-74
2022/09/17 08:27:33;;;;;;;2.72;0.60;;;;;;;;;;4985698;28;20037;-74
2022/09/17 08:29:59;;;;;;;1.27;0.30;;;;;;;;;;4987502;28;20043;-74
2022/09/17 08:32:25;;;;;;;2.30;0.30;;;;;;;;;;4979693;28;20461;-74
2022/09/17 08:34:52;;;;;;;1.45;0.30;;;;;;;;;;4981985;28;20044;-74
2022/09/17 08:37:19;;;;;;;1.80;0.40;;;;;;;;;;4978472;28;20029;-74
2022/09/17 08:39:45;;;;;;;2.22;0.40;;;;;;;;;;4981519;28;20054;-74
2022/09/17 08:42:17;;;;;;;3.03;0.40;;;;;;;;;;4977896;28;20173;-74
2022/09/17 08:44:43;;;;;;;;;;;;;;;;;;4977025;28;20483;-73
2022/09/17 08:47:14;;;;;;;1.85;0.25;;;;;;;;;;4977362;28;19914;-73
2022/09/17 08:49:50;;;;;;;1.30;0.30;;;;;;;;;;4981302;28;20467;-74
2022/09/17 08:52:52;;;;;;;1.35;0.20;;;;;;;;;;4982018;28;20038;-73
2022/09/17 08:55:32;;;;;;;5.82;0.68;;;;;;;;;;4888396;29;20051;-73
2022/09/17 08:58:06;;;;;;;2.30;0.47;;;;;;;;;;4965448;28;20038;-74
2022/09/17 09:00:42;;;;;;;2.13;0.40;;;;;;;;;;4976776;28;20030;-74
2022/09/17 09:03:11;;;;;;;1.27;0.40;;;;;;;;;;4977209;28;20045;-74
2022/09/17 09:05:44;;;;;;;1.73;0.32;;;;;;;;;;4981844;28;20065;-73
2022/09/17 09:08:22;;;;;;;1.55;0.40;;;;;;;;;;4982543;28;20077;-74
2022/09/17 09:10:59;;;;;;;1.40;0.20;;;;;;;;;;4985012;28;20034;-74
2022/09/17 09:13:28;;;;;;;4.22;0.50;;;;;;;;;;4984278;28;20042;-74
2022/09/17 09:15:54;;;;;;;2.10;0.30;;;;;;;;;;4981680;28;20084;-74
2022/09/17 09:18:22;;;;;;;2.17;0.32;;;;;;;;;;4988874;28;20548;-74
2022/09/17 09:20:52;;;;;;;4.22;0.30;;;;;;;;;;4980691;28;20027;-74
2022/09/17 09:23:20;;;;;;;1.98;0.28;;;;;;;;;;4982600;28;20034;-74
2022/09/17 09:26:02;;;;;;;1.35;0.30;;;;;;;;;;4980751;28;20030;-74
2022/09/17 09:28:35;;;;;;;1.20;0.20;;;;;;;;;;4979763;28;20133;-73
2022/09/17 09:31:04;;;;;;;0.63;0.20;;;;;;;;;;4976804;28;20030;-74
2022/09/17 09:33:36;;;;;;;1.65;0.20;;;;;;;;;;4978547;28;20049;-73
2022/09/17 09:36:05;;;;;;;1.90;0.30;;;;;;;;;;4984385;28;20022;-74
2022/09/17 09:38:42;;;;;;;1.42;0.30;;;;;;;;;;4981966;28;20035;-74
2022/09/17 09:41:11;;;;;;;0.85;0.30;;;;;;;;;;4977056;28;20031;-74
2022/09/17 09:44:12;;;;;;;2.63;0.30;;;;;;;;;;4980905;28;20038;-73
2022/09/17 09:46:40;;;;;;;2.45;0.43;;;;;;;;;;4921518;29;20088;-74
2022/09/17 09:49:22;;;;;;;1.98;0.30;;;;;;;;;;4970594;28;20058;-74
2022/09/17 09:51:49;;;;;;;2.75;0.50;;;;;;;;;;4981088;28;20585;-73
2022/09/17 09:54:16;;;;;;;3.00;0.32;;;;;;;;;;4979138;28;20469;-74
2022/09/17 09:56:45;;;;;;;1.42;0.30;;;;;;;;;;4982088;28;20053;-74
2022/09/17 09:59:12;;;;;;;2.30;0.40;;;;;;;;;;4981973;28;20038;-74
2022/09/17 10:01:41;;;;;;;2.92;0.30;;;;;;;;;;4987694;28;20030;-75
2022/09/17 10:04:18;;;;;;;1.83;0.40;;;;;;;;;;4985139;28;20484;-74
2022/09/17 10:06:45;;;;;;;2.03;0.35;;;;;;;;;;4980760;28;20050;-74
2022/09/17 10:09:13;;;;;;;2.20;0.40;;;;;;;;;;4981928;28;20082;-74
2022/09/17 10:11:39;;;;;;;0.93;0.22;;;;;;;;;;4982506;28;20030;-74
2022/09/17 10:14:25;;;;;;;2.38;0.40;;;;;;;;;;4978157;28;20047;-74
2022/09/17 10:17:11;;;;;;;2.15;0.30;;;;;;;;;;4985310;28;20022;-74
2022/09/17 10:19:38;;;;;;;2.38;0.30;;;;;;;;;;4980644;28;20057;-74
2022/09/17 10:22:24;;;;;;;1.65;0.30;;;;;;;;;;4983178;28;20037;-74
2022/09/17 10:24:51;;;;;;;0.80;0.30;;;;;;;;;;4962938;28;20050;-74
2022/09/17 10:27:19;;;;;;;1.10;0.20;;;;;;;;;;4986938;28;20452;-75
2022/09/17 10:29:46;;;;;;;1.55;0.20;;;;;;;;;;4982942;28;20038;-74
2022/09/17 10:32:15;;;;;;;1.33;0.30;;;;;;;;;;4977627;28;20096;-74
2022/09/17 10:34:43;;;;;;;1.42;0.20;;;;;;;;;;4984000;28;20069;-73
2022/09/17 10:37:29;;;;;;;1.40;0.20;;;;;;;;;;4982158;28;20026;-74
2022/09/17 10:39:55;;;;;;;1.13;0.30;;;;;;;;;;4980903;28;20108;-74
2022/09/17 10:42:21;;;;;;;1.75;0.30;;;;;;;;;;4981306;28;20026;-74
2022/09/17 10:44:57;;;;;;;1.55;0.30;;;;;;;;;;4974503;28;20043;-75
2022/09/17 10:47:23;;;;;;;0.45;0.20;;;;;;;;;;4982688;28;20034;-73
2022/09/17 10:49:53;;;;;;;0.60;0.28;;;;;;;;;;4981398;28;20042;-74
2022/09/17 10:52:26;;;;;;;2.20;0.22;;;;;;;;;;4984785;28;20077;-75
2022/09/17 10:54:58;;;;;;;2.67;0.20;;;;;;;;;;4979773;28;20070;-75
2022/09/17 10:57:24;;;;;;;;;;;;;;;;;;4982284;28;20416;-75
2022/09/17 11:00:06;;;;;;;0.88;0.25;;;;;;;;;;4980261;28;19957;-74
2022/09/17 11:02:32;;;;;;;;;;;;;;;;;;4982137;28;20034;-74
2022/09/17 11:05:21;;;;;;;2.67;0.30;;;;;;;;;;4983386;28;19925;-74
2022/09/17 11:07:54;;;;;;;0.55;0.15;;;;;;;;;;4982685;28;20212;-74
2022/09/17 11:10:25;;;;;;;1.13;0.30;;;;;;;;;;4987457;28;20042;-74
2022/09/17 11:13:00;;;;;;;3.25;0.20;;;;;;;;;;4981310;28;20046;-75
2022/09/17 11:15:26;;;;;;;2.17;0.40;;;;;;;;;;4978611;28;20451;-75
2022/09/17 11:18:01;;;;;;;1.95;0.30;;;;;;;;;;4981207;28;20368;-74
2022/09/17 11:20:45;;;;;;;1.58;0.30;;;;;;;;;;4979531;28;20081;-75
2022/09/17 11:23:30;;;;;;;0.52;0.20;;;;;;;;;;4981720;28;20046;-74
2022/09/17 11:25:59;;;;;;;4.03;0.40;;;;;;;;;;4985207;28;20034;-75
2022/09/17 11:28:25;;;;;;;3.03;0.35;;;;;;;;;;4976460;28;20034;-74
2022/09/17 11:31:10;;;;;;;1.58;0.20;;;;;;;;;;4985316;28;20061;-74
2022/09/17 11:33:56;;;;;;;2.08;0.30;;;;;;;;;;4981356;28;20031;-75
2022/09/17 11:36:28;;;;;;;1.67;0.28;;;;;;;;;;4983130;28;20133;-75
2022/09/17 11:38:57;;;;;;;0.75;0.22;;;;;;;;;;4975667;28;20700;-74
2022/09/17 11:41:27;;;;;;;1.35;0.20;;;;;;;;;;4985410;28;20503;-74
2022/09/17 11:44:04;;;;;;;1.45;0.20;;;;;;;;;;4982826;28;20038;-75
2022/09/17 11:46:34;;;;;;;0.70;0.20;;;;;;;;;;4975360;28;20034;-74
2022/09/17 11:49:04;;;;;;;0.50;0.20;;;;;;;;;;4978514;28;20498;-75
2022/09/17 11:51:30;;;;;;;0.85;0.20;;;;;;;;;;4984256;28;20081;-75
2022/09/17 11:54:03;;;;;;;1.85;0.30;;;;;;;;;;4979194;28;20529;-74
2022/09/17 11:56:43;;;;;;;0.85;0.15;;;;;;;;;;4984238;28;20023;-75
2022/09/17 11:59:18;;;;;;;0.82;0.20;;;;;;;;;;4985237;28;20039;-75
2022/09/17 12:01:50;;;;;;;0.70;0.20;;;;;;;;;;4985312;28;20472;-74
2022/09/17 12:04:16;;;;;;;;;;;;;;;;;;4979856;28;20045;-75
2022/09/17 12:06:46;;;;;;;3.78;0.20;;;;;;;;;;4983323;28;19922;-75
2022/09/17 12:09:15;;;;;;;1.48;0.20;;;;;;;;;;4986795;28;20031;-74
2022/09/17 12:11:52;;;;;;;1.38;0.20;;;;;;;;;;4979571;28;20030;-75
2022/09/17 12:14:22;;;;;;;2.47;0.20;;;;;;;;;;4986433;28;20034;-75
2022/09/17 12:16:50;;;;;;;1.52;0.20;;;;;;;;;;4982916;28;20833;-75
2022/09/17 12:19:25;;;;;;;1.33;0.40;;;;;;;;;;4987429;28;20031;-74
2022/09/17 12:21:57;;;;;;;3.17;0.47;;;;;;;;;;4985171;28;20065;-75
2022/09/17 12:24:29;;;;;;;1.27;0.20;;;;;;;;;;4984431;28;20038;-75
2022/09/17 12:26:55;;;;;;;3.40;0.40;;;;;;;;;;4980512;28;20113;-75
2022/09/17 12:29:40;;;;;;;1.33;0.17;;;;;;;;;;4988185;28;20065;-75
2022/09/17 12:32:25;;;;;;;1.92;0.28;;;;;;;;;;4980551;28;20081;-75
2022/09/17 12:35:03;;;;;;;1.65;0.28;;;;;;;;;;4985755;28;20068;-75
2022/09/17 12:37:32;;;;;;;3.08;0.30;;;;;;;;;;4985459;28;20747;-75
2022/09/17 12:40:16;;;;;;;2.67;0.20;;;;;;;;;;4980623;28;20487;-75
2022/09/17 12:42:48;;;;;;;1.27;0.20;;;;;;;;;;4980756;28;20058;-75
2022/09/17 12:45:14;;;;;;;1.38;0.20;;;;;;;;;;4983707;28;20113;-75
2022/09/17 12:47:40;;;;;;;1.88;0.30;;;;;;;;;;4983234;28;20109;-75
2022/09/17 12:50:12;;;;;;;2.78;0.30;;;;;;;;;;4983035;28;20031;-75
2022/09/17 12:52:38;;;;;;;;;;;;;;;;;;4983867;28;20030;-75
2022/09/17 12:55:11;;;;;;;1.33;0.20;;;;;;;;;;4989147;28;20298;-75
2022/09/17 12:57:49;;;;;;;1.00;0.32;;;;;;;;;;4988736;28;20027;-75
2022/09/17 13:00:16;;;;;;;1.17;0.20;;;;;;;;;;4986517;28;20034;-75
2022/09/17 13:02:53;;;;;;;0.68;0.20;;;;;;;;;;4983251;28;20030;-75
2022/09/17 13:05:28;;;;;;;0.75;0.13;;;;;;;;;;4984600;28;20037;-75
2022/09/17 13:07:57;;;;;;;1.48;0.20;;;;;;;;;;4982852;28;20055;-75
2022/09/17 13:10:29;;;;;;;2.08;0.30;;;;;;;;;;4977294;28;20559;-75
2022/09/17 13:12:55;;;;;;;;;;;;;;;;;;4982563;28;20372;-75
2022/09/17 13:15:24;;;;;;;2.53;0.22;;;;;;;;;;4979885;28;19953;-75
2022/09/17 13:17:53;;;;;;;1.77;0.30;;;;;;;;;;4984197;28;20049;-75
2022/09/17 13:20:40;;;;;;;2.53;0.30;;;;;;;;;;4979358;28;20782;-75
2022/09/17 13:23:06;;;;;;;1.40;0.13;;;;;;;;;;4984640;28;20049;-75
2022/09/17 13:25:32;;;;;;;1.73;0.30;;;;;;;;;;4984832;28;20060;-75
2022/09/17 13:28:08;;;;;;;1.60;0.17;;;;;;;;;;4987106;28;20535;-75
2022/09/17 13:30:54;;;;;;;3.55;0.20;;;;;;;;;;4986409;28;20125;-74
2022/09/17 13:33:39;;;;;;;0.63;0.10;;;;;;;;;;4980569;28;20031;-75
2022/09/17 13:36:25;;;;;;;1.05;0.22;;;;;;;;;;4981323;28;20030;-75
2022/09/17 13:38:51;;;;;;;1.65;0.20;;;;;;;;;;4988137;28;20038;-75
2022/09/17 13:41:19;;;;;;;1.10;0.20;;;;;;;;;;4982638;28;20030;-75
2022/09/17 13:43:45;;;;;;;0.82;0.20;;;;;;;;;;4985026;28;20034;-75
2022/09/17 13:46:14;;;;;;;0.52;0.20;;;;;;;;;;4982100;28;20034;-75
2022/09/17 13:48:46;;;;;;;0.98;0.17;;;;;;;;;;4976351;28;20077;-76
2022/09/17 13:51:33;;;;;;;2.83;0.20;;;;;;;;;;4979919;28;20034;-74
2022/09/17 13:54:01;;;;;;;0.95;0.20;;;;;;;;;;4983688;28;20121;-75
2022/09/17 13:56:36;;;;;;;0.50;0.10;;;;;;;;;;4987820;28;20197;-75
2022/09/17 13:59:13;;;;;;;0.93;0.10;;;;;;;;;;4982078;28;20035;-75
2022/09/17 14:01:57;;;;;;;1.70;0.20;;;;;;;;;;4984042;28;20061;-75
2022/09/17 14:04:42;;;;;;;1.20;0.20;;;;;;;;;;4982789;28;20043;-75
2022/09/17 14:07:25;;;;;;;1.55;0.30;;;;;;;;;;4986441;28;20456;-75
2022/09/17 14:09:55;;;;;;;1.48;0.20;;;;;;;;;;4983383;28;20457;-75
2022/09/17 14:12:40;;;;;;;2.25;0.28;;;;;;;;;;4975810;28;20098;-74
2022/09/17 14:15:24;;;;;;;0.20;0.10;;;;;;;;;;4991003;28;20501;-75
2022/09/17 14:17:51;;;;;;;0.98;0.28;;;;;;;;;;4987759;28;20093;-75
2022/09/17 14:20:20;;;;;;;1.17;0.20;;;;;;;;;;4983930;28;20044;-75
2022/09/17 14:22:54;;;;;;;2.45;0.30;;;;;;;;;;4977089;28;20026;-76
2022/09/17 14:25:22;;;;;;;2.63;0.50;;;;;;;;;;4982965;28;20535;-75
2022/09/17 14:27:49;;;;;;;0.88;0.17;;;;;;;;;;4983624;28;20034;-75
2022/09/17 14:30:20;;;;;;;2.15;0.20;;;;;;;;;;4978793;28;20069;-76
2022/09/17 14:33:04;;;;;;;0.27;0.10;;;;;;;;;;4982065;28;20101;-75
2022/09/17 14:35:34;;;;;;;2.08;0.20;;;;;;;;;;4985718;28;20947;-75
2022/09/17 14:38:09;;;;;;;2.35;0.20;;;;;;;;;;4977085;28;20379;-75
2022/09/17 14:40:35;;;;;;;2.88;0.20;;;;;;;;;;4985391;28;20034;-75
2022/09/17 14:43:02;;;;;;;1.23;0.20;;;;;;;;;;4985918;28;20042;-75
2022/09/17 14:45:38;;;;;;;0.70;0.10;;;;;;;;;;4986844;28;20679;-76
2022/09/17 14:48:19;;;;;;;0.52;0.15;;;;;;;;;;4986771;28;20078;-75
2022/09/17 14:50:45;;;;;;;0.93;0.20;;;;;;;;;;4977702;28;20033;-76
2022/09/17 14:53:15;;;;;;;1.92;0.30;;;;;;;;;;4982416;28;20043;-75
2022/09/17 14:55:41;;;;;;;0.90;0.20;;;;;;;;;;4984112;28;20096;-76
2022/09/17 14:58:24;;;;;;;2.72;0.20;;;;;;;;;;4982009;28;20038;-76
2022/09/17 15:00:52;;;;;;;0.65;0.10;;;;;;;;;;4986688;28;20058;-76
2022/09/17 15:03:22;;;;;;;3.97;0.55;;;;;;;;;;4989431;28;20034;-75
2022/09/17 15:05:49;;;;;;;2.90;0.30;;;;;;;;;;4988108;28;20041;-75